MMTP/TAP METAR and TAF weather

Enter ICAO airport designator
Station Type Date Time Source
MMTP METAR 2021/09/23 22:40 UTC NOAA

MMTP 232240Z 25006KT 8SM BKN085 BKN200 29/27 A2978 RMK 8/063 HZY DSTN CB NE


Station Type Date Time Source
MMTP Decoded METAR 2021/09/23 22:40 UTC NOAA

Tapachula , Mexico (MMTP) 14-47N 092-23W
Sep 23, 2021 - 06:40 PM EDT / 2021.09.23 2240 UTC
Wind: from the WSW (250 degrees) at 7 MPH (6 KT):0
Visibility: 8 mile(s):0
Sky conditions: mostly cloudy
Weather: Cumulonimbus clouds observed
Temperature: 84 F (29 C)
Dew Point: 80 F (27 C)
Relative Humidity: 88%
Pressure (altimeter): 29.78 in. Hg (1008 hPa)
ob: MMTP 232240Z 25006KT 8SM BKN085 BKN200 29/27 A2978 RMK 8/063 HZY DSTN CB NE
cycle: 22

Station Type Date Time Source
MMTP TAF 2021/09/23 18:30 UTC NOAA

TAF MMTP 231727Z 2318/2424 23010KT P6SM SCT030
TEMPO 2320/2324 BKN030 PROB40 2323/2403 5SM RA BKN025CB
FM240600 00000KT P6SM BKN100
FM241800 23010KT P6SM SCT025

Example: see airport list